sensor_id;sensor_type;location;lat;lon;timestamp;temperature;humidity
48994;DHT22;34804;49.214;12.276;2023-03-01T00:01:17;-3273.60;85.60
48994;DHT22;34804;49.214;12.276;2023-03-01T00:03:45;-3273.60;85.40
48994;DHT22;34804;49.214;12.276;2023-03-01T00:06:12;-3273.60;85.20
48994;DHT22;34804;49.214;12.276;2023-03-01T00:08:39;-3273.50;85.10
48994;DHT22;34804;49.214;12.276;2023-03-01T00:11:09;-3273.40;85.00
48994;DHT22;34804;49.214;12.276;2023-03-01T00:13:36;-3273.30;85.10
48994;DHT22;34804;49.214;12.276;2023-03-01T00:16:06;-3273.30;85.80
48994;DHT22;34804;49.214;12.276;2023-03-01T00:18:33;-3273.30;86.10
48994;DHT22;34804;49.214;12.276;2023-03-01T00:21:00;-3273.30;86.20
48994;DHT22;34804;49.214;12.276;2023-03-01T00:23:26;-3273.30;85.80
48994;DHT22;34804;49.214;12.276;2023-03-01T00:25:53;-3273.30;85.60
48994;DHT22;34804;49.214;12.276;2023-03-01T00:28:20;-3273.20;86.00
48994;DHT22;34804;49.214;12.276;2023-03-01T00:30:47;-3273.20;86.00
48994;DHT22;34804;49.214;12.276;2023-03-01T00:33:14;-3273.10;86.60
48994;DHT22;34804;49.214;12.276;2023-03-01T00:35:41;-3273.10;85.90
48994;DHT22;34804;49.214;12.276;2023-03-01T00:38:08;-3273.00;86.30
48994;DHT22;34804;49.214;12.276;2023-03-01T00:40:35;-3273.00;86.40
48994;DHT22;34804;49.214;12.276;2023-03-01T00:43:03;-3272.90;86.10
48994;DHT22;34804;49.214;12.276;2023-03-01T00:45:30;-3273.00;85.80
48994;DHT22;34804;49.214;12.276;2023-03-01T00:47:57;-3273.00;86.20
48994;DHT22;34804;49.214;12.276;2023-03-01T00:50:24;-3273.00;86.60
48994;DHT22;34804;49.214;12.276;2023-03-01T00:53:00;-3273.00;86.60
48994;DHT22;34804;49.214;12.276;2023-03-01T00:55:48;-3273.20;86.50
48994;DHT22;34804;49.214;12.276;2023-03-01T00:58:23;-3273.10;86.00
48994;DHT22;34804;49.214;12.276;2023-03-01T01:00:52;-3273.10;86.00
48994;DHT22;34804;49.214;12.276;2023-03-01T01:03:19;-3273.10;86.30
48994;DHT22;34804;49.214;12.276;2023-03-01T01:05:46;-3273.10;86.00
48994;DHT22;34804;49.214;12.276;2023-03-01T01:08:12;-3273.00;86.50
48994;DHT22;34804;49.214;12.276;2023-03-01T01:10:39;-3273.00;86.70
48994;DHT22;34804;49.214;12.276;2023-03-01T01:13:06;-3273.00;86.60
48994;DHT22;34804;49.214;12.276;2023-03-01T01:15:34;-3273.00;86.40
48994;DHT22;34804;49.214;12.276;2023-03-01T01:18:01;-3272.90;86.70
48994;DHT22;34804;49.214;12.276;2023-03-01T01:20:28;-3272.90;86.70
48994;DHT22;34804;49.214;12.276;2023-03-01T01:22:55;-3272.80;86.50
48994;DHT22;34804;49.214;12.276;2023-03-01T01:25:22;-3272.80;86.80
48994;DHT22;34804;49.214;12.276;2023-03-01T01:27:51;-3272.80;86.90
48994;DHT22;34804;49.214;12.276;2023-03-01T01:30:18;-3272.80;87.30
48994;DHT22;34804;49.214;12.276;2023-03-01T01:32:45;-3272.80;86.90
48994;DHT22;34804;49.214;12.276;2023-03-01T01:35:11;-3272.80;86.90
48994;DHT22;34804;49.214;12.276;2023-03-01T01:37:38;-3272.80;87.10
48994;DHT22;34804;49.214;12.276;2023-03-01T01:40:05;-3272.80;87.60
48994;DHT22;34804;49.214;12.276;2023-03-01T01:42:32;-3272.90;87.80
48994;DHT22;34804;49.214;12.276;2023-03-01T01:45:32;-3272.80;87.20
48994;DHT22;34804;49.214;12.276;2023-03-01T01:48:06;-3272.80;87.50
48994;DHT22;34804;49.214;12.276;2023-03-01T01:50:40;-3272.80;87.40
48994;DHT22;34804;49.214;12.276;2023-03-01T01:53:12;-3272.80;87.30
48994;DHT22;34804;49.214;12.276;2023-03-01T01:55:44;-3272.70;87.40
48994;DHT22;34804;49.214;12.276;2023-03-01T01:58:15;-3272.70;86.90
48994;DHT22;34804;49.214;12.276;2023-03-01T02:00:44;-3272.70;87.40
48994;DHT22;34804;49.214;12.276;2023-03-01T02:03:19;-3272.70;87.40
48994;DHT22;34804;49.214;12.276;2023-03-01T02:05:50;-3272.60;86.90
48994;DHT22;34804;49.214;12.276;2023-03-01T02:08:23;-3272.60;87.20
48994;DHT22;34804;49.214;12.276;2023-03-01T02:10:52;-3272.50;87.10
48994;DHT22;34804;49.214;12.276;2023-03-01T02:13:19;-3272.50;87.30
48994;DHT22;34804;49.214;12.276;2023-03-01T02:15:46;-3272.50;87.30
48994;DHT22;34804;49.214;12.276;2023-03-01T02:18:16;-3272.40;87.60
48994;DHT22;34804;49.214;12.276;2023-03-01T02:23:41;-3272.30;87.60
48994;DHT22;34804;49.214;12.276;2023-03-01T02:29:01;-3272.30;87.90
48994;DHT22;34804;49.214;12.276;2023-03-01T02:31:28;-3272.40;88.00
48994;DHT22;34804;49.214;12.276;2023-03-01T02:34:14;-3272.40;88.00
48994;DHT22;34804;49.214;12.276;2023-03-01T02:39:15;-3272.40;87.80
48994;DHT22;34804;49.214;12.276;2023-03-01T02:41:50;-3272.30;87.40
48994;DHT22;34804;49.214;12.276;2023-03-01T02:44:18;-3272.20;87.20
48994;DHT22;34804;49.214;12.276;2023-03-01T02:46:49;-3272.20;88.10
48994;DHT22;34804;49.214;12.276;2023-03-01T02:49:28;-3272.30;88.30
48994;DHT22;34804;49.214;12.276;2023-03-01T02:52:12;-3272.30;88.30
48994;DHT22;34804;49.214;12.276;2023-03-01T02:55:07;-3272.20;87.30
48994;DHT22;34804;49.214;12.276;2023-03-01T02:57:37;-3272.10;87.60
48994;DHT22;34804;49.214;12.276;2023-03-01T03:00:10;-3272.10;87.80
48994;DHT22;34804;49.214;12.276;2023-03-01T03:02:47;-3272.10;87.60
48994;DHT22;34804;49.214;12.276;2023-03-01T03:05:21;-3272.00;87.80
48994;DHT22;34804;49.214;12.276;2023-03-01T03:07:49;-3272.10;87.90
48994;DHT22;34804;49.214;12.276;2023-03-01T03:10:20;-3272.00;87.50
48994;DHT22;34804;49.214;12.276;2023-03-01T03:12:52;-3272.00;87.30
48994;DHT22;34804;49.214;12.276;2023-03-01T03:15:19;-3271.80;87.10
48994;DHT22;34804;49.214;12.276;2023-03-01T03:17:47;-3271.70;87.30
48994;DHT22;34804;49.214;12.276;2023-03-01T03:20:16;-3271.70;88.50
48994;DHT22;34804;49.214;12.276;2023-03-01T03:22:50;-3271.70;88.40
48994;DHT22;34804;49.214;12.276;2023-03-01T03:25:18;-3271.70;88.80
48994;DHT22;34804;49.214;12.276;2023-03-01T03:27:46;-3271.90;88.90
48994;DHT22;34804;49.214;12.276;2023-03-01T03:30:18;-3272.00;88.50
48994;DHT22;34804;49.214;12.276;2023-03-01T03:32:47;-3271.90;87.60
48994;DHT22;34804;49.214;12.276;2023-03-01T03:35:22;-3271.90;87.70
48994;DHT22;34804;49.214;12.276;2023-03-01T03:37:49;-3271.90;87.60
48994;DHT22;34804;49.214;12.276;2023-03-01T03:40:40;-3271.80;87.90
48994;DHT22;34804;49.214;12.276;2023-03-01T03:43:10;-3271.80;88.20
48994;DHT22;34804;49.214;12.276;2023-03-01T03:45:37;-3271.90;88.40
48994;DHT22;34804;49.214;12.276;2023-03-01T03:48:07;-3271.90;88.50
48994;DHT22;34804;49.214;12.276;2023-03-01T03:50:34;-3272.00;88.60
48994;DHT22;34804;49.214;12.276;2023-03-01T03:53:03;-3272.00;88.60
48994;DHT22;34804;49.214;12.276;2023-03-01T03:55:30;-3272.00;88.80
48994;DHT22;34804;49.214;12.276;2023-03-01T03:57:58;-3272.00;88.90
48994;DHT22;34804;49.214;12.276;2023-03-01T04:00:28;-3272.00;88.90
48994;DHT22;34804;49.214;12.276;2023-03-01T04:02:55;-3271.90;88.80
48994;DHT22;34804;49.214;12.276;2023-03-01T04:05:23;-3271.90;88.80
48994;DHT22;34804;49.214;12.276;2023-03-01T04:07:50;-3271.90;88.40
48994;DHT22;34804;49.214;12.276;2023-03-01T04:10:33;-3271.70;87.60
48994;DHT22;34804;49.214;12.276;2023-03-01T04:13:00;-3271.70;88.10
48994;DHT22;34804;49.214;12.276;2023-03-01T04:15:28;-3271.70;88.40
48994;DHT22;34804;49.214;12.276;2023-03-01T04:17:55;-3271.70;88.30
48994;DHT22;34804;49.214;12.276;2023-03-01T04:20:25;-3271.60;88.00
48994;DHT22;34804;49.214;12.276;2023-03-01T04:25:24;-3271.60;87.90
48994;DHT22;34804;49.214;12.276;2023-03-01T04:27:50;-3271.60;88.00
48994;DHT22;34804;49.214;12.276;2023-03-01T04:30:17;-3271.70;88.20
48994;DHT22;34804;49.214;12.276;2023-03-01T04:32:44;-3271.70;88.30
48994;DHT22;34804;49.214;12.276;2023-03-01T04:35:11;-3271.70;88.20
48994;DHT22;34804;49.214;12.276;2023-03-01T04:37:37;-3271.60;88.00
48994;DHT22;34804;49.214;12.276;2023-03-01T04:40:05;-3271.60;88.10
48994;DHT22;34804;49.214;12.276;2023-03-01T04:42:39;-3271.50;87.90
48994;DHT22;34804;49.214;12.276;2023-03-01T04:45:06;-3271.40;87.80
48994;DHT22;34804;49.214;12.276;2023-03-01T04:47:43;-3271.40;88.60
48994;DHT22;34804;49.214;12.276;2023-03-01T04:50:16;-3271.50;88.50
48994;DHT22;34804;49.214;12.276;2023-03-01T04:52:44;-3271.50;88.80
48994;DHT22;34804;49.214;12.276;2023-03-01T04:55:11;-3271.50;88.80
48994;DHT22;34804;49.214;12.276;2023-03-01T04:57:38;-3271.50;88.70
48994;DHT22;34804;49.214;12.276;2023-03-01T05:00:08;-3271.60;88.90
48994;DHT22;34804;49.214;12.276;2023-03-01T05:02:57;-3271.60;88.80
48994;DHT22;34804;49.214;12.276;2023-03-01T05:05:30;-3271.70;88.80
48994;DHT22;34804;49.214;12.276;2023-03-01T05:08:00;-3271.60;88.30
48994;DHT22;34804;49.214;12.276;2023-03-01T05:10:29;-3271.50;88.10
48994;DHT22;34804;49.214;12.276;2023-03-01T05:13:00;-3271.50;88.50
48994;DHT22;34804;49.214;12.276;2023-03-01T05:15:29;-3271.50;88.20
48994;DHT22;34804;49.214;12.276;2023-03-01T05:17:58;-3271.60;88.40
48994;DHT22;34804;49.214;12.276;2023-03-01T05:20:27;-3271.60;88.60
48994;DHT22;34804;49.214;12.276;2023-03-01T05:22:59;-3271.70;88.70
48994;DHT22;34804;49.214;12.276;2023-03-01T05:25:27;-3271.70;88.80
48994;DHT22;34804;49.214;12.276;2023-03-01T05:28:02;-3271.70;89.00
48994;DHT22;34804;49.214;12.276;2023-03-01T05:30:32;-3271.70;88.90
48994;DHT22;34804;49.214;12.276;2023-03-01T05:33:00;-3271.80;88.60
48994;DHT22;34804;49.214;12.276;2023-03-01T05:35:27;-3271.70;87.70
48994;DHT22;34804;49.214;12.276;2023-03-01T05:37:56;-3271.60;87.80
48994;DHT22;34804;49.214;12.276;2023-03-01T05:40:23;-3271.60;88.00
48994;DHT22;34804;49.214;12.276;2023-03-01T05:42:55;-3271.50;87.80
48994;DHT22;34804;49.214;12.276;2023-03-01T05:45:24;-3271.60;88.40
48994;DHT22;34804;49.214;12.276;2023-03-01T05:47:52;-3271.50;87.90
48994;DHT22;34804;49.214;12.276;2023-03-01T05:50:24;-3271.60;88.30
48994;DHT22;34804;49.214;12.276;2023-03-01T05:53:06;-3271.50;87.50
48994;DHT22;34804;49.214;12.276;2023-03-01T05:55:35;-3271.50;87.90
48994;DHT22;34804;49.214;12.276;2023-03-01T05:58:04;-3271.50;87.90
48994;DHT22;34804;49.214;12.276;2023-03-01T06:00:32;-3271.50;87.90
48994;DHT22;34804;49.214;12.276;2023-03-01T06:03:01;-3271.50;87.50
48994;DHT22;34804;49.214;12.276;2023-03-01T06:05:29;-3271.50;87.40
48994;DHT22;34804;49.214;12.276;2023-03-01T06:07:59;-3271.40;87.20
48994;DHT22;34804;49.214;12.276;2023-03-01T06:10:26;-3271.30;87.80
48994;DHT22;34804;49.214;12.276;2023-03-01T06:12:53;-3271.40;88.10
48994;DHT22;34804;49.214;12.276;2023-03-01T06:15:21;-3271.50;88.00
48994;DHT22;34804;49.214;12.276;2023-03-01T06:17:48;-3271.50;88.00
48994;DHT22;34804;49.214;12.276;2023-03-01T06:20:19;-3271.50;87.90
48994;DHT22;34804;49.214;12.276;2023-03-01T06:22:47;-3271.50;87.90
48994;DHT22;34804;49.214;12.276;2023-03-01T06:25:19;-3271.50;87.90
48994;DHT22;34804;49.214;12.276;2023-03-01T06:27:47;-3271.50;88.10
48994;DHT22;34804;49.214;12.276;2023-03-01T06:30:17;-3271.60;88.20
48994;DHT22;34804;49.214;12.276;2023-03-01T06:32:44;-3271.70;88.30
48994;DHT22;34804;49.214;12.276;2023-03-01T06:35:13;-3271.70;88.30
48994;DHT22;34804;49.214;12.276;2023-03-01T06:37:41;-3271.80;88.40
48994;DHT22;34804;49.214;12.276;2023-03-01T06:40:09;-3271.90;88.40
48994;DHT22;34804;49.214;12.276;2023-03-01T06:42:40;-3271.90;88.10
48994;DHT22;34804;49.214;12.276;2023-03-01T06:45:08;-3272.00;88.30
48994;DHT22;34804;49.214;12.276;2023-03-01T06:47:35;-3272.20;88.30
48994;DHT22;34804;49.214;12.276;2023-03-01T06:50:03;-3272.20;88.00
48994;DHT22;34804;49.214;12.276;2023-03-01T06:52:30;-3272.30;87.90
48994;DHT22;34804;49.214;12.276;2023-03-01T06:54:57;-3272.40;88.10
48994;DHT22;34804;49.214;12.276;2023-03-01T06:57:23;-3272.40;87.80
48994;DHT22;34804;49.214;12.276;2023-03-01T06:59:50;-3272.50;87.70
48994;DHT22;34804;49.214;12.276;2023-03-01T07:02:17;-3272.60;88.10
48994;DHT22;34804;49.214;12.276;2023-03-01T07:04:44;-3272.80;88.10
48994;DHT22;34804;49.214;12.276;2023-03-01T07:07:11;-3272.90;87.70
48994;DHT22;34804;49.214;12.276;2023-03-01T07:09:38;-3273.00;87.80
48994;DHT22;34804;49.214;12.276;2023-03-01T07:12:05;-3273.20;87.60
48994;DHT22;34804;49.214;12.276;2023-03-01T07:14:32;-3273.30;87.60
48994;DHT22;34804;49.214;12.276;2023-03-01T07:16:59;-3273.40;87.90
48994;DHT22;34804;49.214;12.276;2023-03-01T07:19:26;-3273.60;87.90
48994;DHT22;34804;49.214;12.276;2023-03-01T07:21:53;-3273.70;87.70
48994;DHT22;34804;49.214;12.276;2023-03-01T07:24:20;-3273.80;87.90
48994;DHT22;34804;49.214;12.276;2023-03-01T07:26:51;-3274.00;87.90
48994;DHT22;34804;49.214;12.276;2023-03-01T07:29:18;-3274.10;87.90
48994;DHT22;34804;49.214;12.276;2023-03-01T07:31:45;-3274.30;88.10
48994;DHT22;34804;49.214;12.276;2023-03-01T07:34:12;-3274.40;87.80
48994;DHT22;34804;49.214;12.276;2023-03-01T07:36:39;-3274.50;87.80
48994;DHT22;34804;49.214;12.276;2023-03-01T07:39:10;-3274.60;87.30
48994;DHT22;34804;49.214;12.276;2023-03-01T07:41:37;-3274.70;87.00
48994;DHT22;34804;49.214;12.276;2023-03-01T07:44:04;-3274.80;87.10
48994;DHT22;34804;49.214;12.276;2023-03-01T07:46:31;-3275.00;86.90
48994;DHT22;34804;49.214;12.276;2023-03-01T07:48:58;-3275.10;87.30
48994;DHT22;34804;49.214;12.276;2023-03-01T07:51:25;-3275.30;86.60
48994;DHT22;34804;49.214;12.276;2023-03-01T07:53:52;-3275.40;85.40
48994;DHT22;34804;49.214;12.276;2023-03-01T07:56:18;-3275.50;84.10
48994;DHT22;34804;49.214;12.276;2023-03-01T07:58:46;-3275.70;84.00
48994;DHT22;34804;49.214;12.276;2023-03-01T08:01:18;-3275.80;83.70
48994;DHT22;34804;49.214;12.276;2023-03-01T08:03:45;-3275.90;82.30
48994;DHT22;34804;49.214;12.276;2023-03-01T08:06:14;-3276.10;82.60
48994;DHT22;34804;49.214;12.276;2023-03-01T08:08:41;-3276.20;81.60
48994;DHT22;34804;49.214;12.276;2023-03-01T08:11:11;-3276.40;79.90
48994;DHT22;34804;49.214;12.276;2023-03-01T08:13:38;-3276.50;79.90
48994;DHT22;34804;49.214;12.276;2023-03-01T08:16:12;-3276.70;79.60
48994;DHT22;34804;49.214;12.276;2023-03-01T08:18:39;-3276.70;78.30
48994;DHT22;34804;49.214;12.276;2023-03-01T08:21:12;0.00;78.00
48994;DHT22;34804;49.214;12.276;2023-03-01T08:23:39;0.00;77.40
48994;DHT22;34804;49.214;12.276;2023-03-01T08:26:12;0.10;77.60
48994;DHT22;34804;49.214;12.276;2023-03-01T08:28:41;0.20;77.20
48994;DHT22;34804;49.214;12.276;2023-03-01T08:33:42;0.50;76.80
48994;DHT22;34804;49.214;12.276;2023-03-01T08:36:08;0.70;76.70
48994;DHT22;34804;49.214;12.276;2023-03-01T08:38:35;0.80;74.90
48994;DHT22;34804;49.214;12.276;2023-03-01T08:41:03;0.90;74.10
48994;DHT22;34804;49.214;12.276;2023-03-01T08:43:30;1.10;72.60
48994;DHT22;34804;49.214;12.276;2023-03-01T08:45:57;1.20;72.50
48994;DHT22;34804;49.214;12.276;2023-03-01T08:48:25;1.30;72.30
48994;DHT22;34804;49.214;12.276;2023-03-01T08:50:53;1.50;72.80
48994;DHT22;34804;49.214;12.276;2023-03-01T08:53:20;1.70;71.90
48994;DHT22;34804;49.214;12.276;2023-03-01T08:55:47;1.80;72.20
48994;DHT22;34804;49.214;12.276;2023-03-01T08:58:16;2.00;70.40
48994;DHT22;34804;49.214;12.276;2023-03-01T09:00:43;2.10;70.50
48994;DHT22;34804;49.214;12.276;2023-03-01T09:03:10;2.40;70.20
48994;DHT22;34804;49.214;12.276;2023-03-01T09:05:36;2.50;69.00
48994;DHT22;34804;49.214;12.276;2023-03-01T09:08:03;2.60;69.60
48994;DHT22;34804;49.214;12.276;2023-03-01T09:10:30;2.70;68.10
48994;DHT22;34804;49.214;12.276;2023-03-01T09:12:57;2.80;67.60
48994;DHT22;34804;49.214;12.276;2023-03-01T09:15:24;2.90;66.80
48994;DHT22;34804;49.214;12.276;2023-03-01T09:17:51;2.90;66.80
48994;DHT22;34804;49.214;12.276;2023-03-01T09:20:18;2.90;66.60
48994;DHT22;34804;49.214;12.276;2023-03-01T09:22:45;3.10;66.80
48994;DHT22;34804;49.214;12.276;2023-03-01T09:25:12;3.10;66.20
48994;DHT22;34804;49.214;12.276;2023-03-01T09:27:39;3.20;65.10
48994;DHT22;34804;49.214;12.276;2023-03-01T09:30:06;3.30;65.40
48994;DHT22;34804;49.214;12.276;2023-03-01T09:32:33;3.30;65.80
48994;DHT22;34804;49.214;12.276;2023-03-01T09:35:00;3.50;64.70
48994;DHT22;34804;49.214;12.276;2023-03-01T09:37:28;3.60;64.40
48994;DHT22;34804;49.214;12.276;2023-03-01T09:39:55;3.60;64.60
48994;DHT22;34804;49.214;12.276;2023-03-01T09:42:21;3.80;62.40
48994;DHT22;34804;49.214;12.276;2023-03-01T09:47:26;4.00;63.30
48994;DHT22;34804;49.214;12.276;2023-03-01T09:52:50;4.10;61.70
48994;DHT22;34804;49.214;12.276;2023-03-01T09:55:39;4.30;61.90
48994;DHT22;34804;49.214;12.276;2023-03-01T09:58:33;4.40;60.00
48994;DHT22;34804;49.214;12.276;2023-03-01T10:06:30;4.70;60.50
48994;DHT22;34804;49.214;12.276;2023-03-01T10:09:05;4.90;60.10
48994;DHT22;34804;49.214;12.276;2023-03-01T10:11:37;5.00;60.00
48994;DHT22;34804;49.214;12.276;2023-03-01T10:14:33;5.20;59.70
48994;DHT22;34804;49.214;12.276;2023-03-01T10:19:47;5.40;59.50
48994;DHT22;34804;49.214;12.276;2023-03-01T10:22:21;5.40;58.40
48994;DHT22;34804;49.214;12.276;2023-03-01T10:24:49;5.60;57.20
48994;DHT22;34804;49.214;12.276;2023-03-01T10:27:23;5.70;57.10
48994;DHT22;34804;49.214;12.276;2023-03-01T10:32:39;5.60;56.50
48994;DHT22;34804;49.214;12.276;2023-03-01T10:35:24;5.90;57.00
48994;DHT22;34804;49.214;12.276;2023-03-01T10:38:03;6.00;55.70
48994;DHT22;34804;49.214;12.276;2023-03-01T10:40:30;6.20;55.40
48994;DHT22;34804;49.214;12.276;2023-03-01T10:43:03;6.00;55.40
48994;DHT22;34804;49.214;12.276;2023-03-01T10:45:38;6.10;56.00
48994;DHT22;34804;49.214;12.276;2023-03-01T10:48:18;6.20;56.80
48994;DHT22;34804;49.214;12.276;2023-03-01T10:50:48;6.40;56.90
48994;DHT22;34804;49.214;12.276;2023-03-01T10:53:28;6.60;55.10
48994;DHT22;34804;49.214;12.276;2023-03-01T10:58:28;6.70;54.10
48994;DHT22;34804;49.214;12.276;2023-03-01T11:01:02;6.80;54.60
48994;DHT22;34804;49.214;12.276;2023-03-01T11:03:31;6.90;54.90
48994;DHT22;34804;49.214;12.276;2023-03-01T11:06:04;6.60;53.50
48994;DHT22;34804;49.214;12.276;2023-03-01T11:08:40;6.80;55.30
48994;DHT22;34804;49.214;12.276;2023-03-01T11:16:28;7.10;54.50
48994;DHT22;34804;49.214;12.276;2023-03-01T11:19:01;7.20;54.90
48994;DHT22;34804;49.214;12.276;2023-03-01T11:21:32;7.00;54.40
48994;DHT22;34804;49.214;12.276;2023-03-01T11:24:01;7.30;53.20
48994;DHT22;34804;49.214;12.276;2023-03-01T11:26:30;7.50;54.50
48994;DHT22;34804;49.214;12.276;2023-03-01T11:29:02;7.80;53.50
48994;DHT22;34804;49.214;12.276;2023-03-01T11:31:31;7.90;53.50
48994;DHT22;34804;49.214;12.276;2023-03-01T11:34:05;7.90;52.70
48994;DHT22;34804;49.214;12.276;2023-03-01T11:36:56;8.00;51.60
48994;DHT22;34804;49.214;12.276;2023-03-01T11:40:21;8.10;51.60
48994;DHT22;34804;49.214;12.276;2023-03-01T11:42:44;8.30;52.40
48994;DHT22;34804;49.214;12.276;2023-03-01T11:45:13;8.30;52.80
48994;DHT22;34804;49.214;12.276;2023-03-01T11:47:55;8.20;52.00
48994;DHT22;34804;49.214;12.276;2023-03-01T11:50:35;8.30;51.80
48994;DHT22;34804;49.214;12.276;2023-03-01T12:12:23;8.20;53.70
48994;DHT22;34804;49.214;12.276;2023-03-01T12:24:29;8.30;54.10
48994;DHT22;34804;49.214;12.276;2023-03-01T12:36:16;9.60;50.80
48994;DHT22;34804;49.214;12.276;2023-03-01T12:38:51;9.30;50.70
48994;DHT22;34804;49.214;12.276;2023-03-01T12:41:40;9.10;52.00
48994;DHT22;34804;49.214;12.276;2023-03-01T12:47:19;9.60;49.70
48994;DHT22;34804;49.214;12.276;2023-03-01T12:49:51;10.10;48.60
48994;DHT22;34804;49.214;12.276;2023-03-01T12:52:34;10.60;48.90
48994;DHT22;34804;49.214;12.276;2023-03-01T12:55:08;10.70;47.10
48994;DHT22;34804;49.214;12.276;2023-03-01T12:57:57;10.20;47.90
48994;DHT22;34804;49.214;12.276;2023-03-01T13:00:27;10.10;49.20
48994;DHT22;34804;49.214;12.276;2023-03-01T13:03:05;10.30;48.00
48994;DHT22;34804;49.214;12.276;2023-03-01T13:05:47;10.20;47.80
48994;DHT22;34804;49.214;12.276;2023-03-01T13:08:36;9.80;48.40
48994;DHT22;34804;49.214;12.276;2023-03-01T13:11:16;9.70;50.50
48994;DHT22;34804;49.214;12.276;2023-03-01T13:13:44;10.20;47.80
48994;DHT22;34804;49.214;12.276;2023-03-01T13:19:16;10.40;48.10
48994;DHT22;34804;49.214;12.276;2023-03-01T13:21:45;11.60;46.20
48994;DHT22;34804;49.214;12.276;2023-03-01T13:24:28;12.30;45.50
48994;DHT22;34804;49.214;12.276;2023-03-01T13:27:39;12.50;41.90
48994;DHT22;34804;49.214;12.276;2023-03-01T13:29:54;11.80;44.40
48994;DHT22;34804;49.214;12.276;2023-03-01T13:32:26;11.80;45.00
48994;DHT22;34804;49.214;12.276;2023-03-01T13:37:46;11.70;45.20
48994;DHT22;34804;49.214;12.276;2023-03-01T13:45:39;10.90;46.20
48994;DHT22;34804;49.214;12.276;2023-03-01T13:48:16;10.60;46.80
48994;DHT22;34804;49.214;12.276;2023-03-01T13:51:10;10.80;46.60
48994;DHT22;34804;49.214;12.276;2023-03-01T13:53:40;11.20;46.80
48994;DHT22;34804;49.214;12.276;2023-03-01T13:56:37;11.90;45.00
48994;DHT22;34804;49.214;12.276;2023-03-01T13:59:12;12.80;43.40
48994;DHT22;34804;49.214;12.276;2023-03-01T14:01:41;11.90;44.00
48994;DHT22;34804;49.214;12.276;2023-03-01T14:04:26;12.10;44.00
48994;DHT22;34804;49.214;12.276;2023-03-01T14:07:18;12.40;44.70
48994;DHT22;34804;49.214;12.276;2023-03-01T14:09:58;11.90;44.10
48994;DHT22;34804;49.214;12.276;2023-03-01T14:12:30;11.30;45.70
48994;DHT22;34804;49.214;12.276;2023-03-01T14:20:25;11.30;45.40
48994;DHT22;34804;49.214;12.276;2023-03-01T14:22:58;11.00;46.80
48994;DHT22;34804;49.214;12.276;2023-03-01T14:25:35;11.50;45.50
48994;DHT22;34804;49.214;12.276;2023-03-01T14:28:15;12.20;44.50
48994;DHT22;34804;49.214;12.276;2023-03-01T14:30:45;12.70;43.70
48994;DHT22;34804;49.214;12.276;2023-03-01T14:36:06;13.20;42.70
48994;DHT22;34804;49.214;12.276;2023-03-01T14:38:41;12.70;42.40
48994;DHT22;34804;49.214;12.276;2023-03-01T14:41:11;12.40;43.90
48994;DHT22;34804;49.214;12.276;2023-03-01T14:43:42;12.70;42.50
48994;DHT22;34804;49.214;12.276;2023-03-01T14:46:38;11.60;45.10
48994;DHT22;34804;49.214;12.276;2023-03-01T14:49:17;11.30;45.70
48994;DHT22;34804;49.214;12.276;2023-03-01T14:54:47;13.00;41.90
48994;DHT22;34804;49.214;12.276;2023-03-01T14:57:20;12.90;42.10
48994;DHT22;34804;49.214;12.276;2023-03-01T14:59:49;12.90;42.30
48994;DHT22;34804;49.214;12.276;2023-03-01T15:02:22;12.90;42.00
48994;DHT22;34804;49.214;12.276;2023-03-01T15:04:52;13.30;41.90
48994;DHT22;34804;49.214;12.276;2023-03-01T15:07:21;13.50;41.20
48994;DHT22;34804;49.214;12.276;2023-03-01T15:09:48;13.40;40.80
48994;DHT22;34804;49.214;12.276;2023-03-01T15:14:55;11.60;44.50
48994;DHT22;34804;49.214;12.276;2023-03-01T15:17:36;12.30;43.80
48994;DHT22;34804;49.214;12.276;2023-03-01T15:20:16;12.00;43.60
48994;DHT22;34804;49.214;12.276;2023-03-01T15:22:44;11.00;46.00
48994;DHT22;34804;49.214;12.276;2023-03-01T15:25:23;10.60;47.60
48994;DHT22;34804;49.214;12.276;2023-03-01T15:27:53;11.10;46.40
48994;DHT22;34804;49.214;12.276;2023-03-01T15:30:32;11.50;44.70
48994;DHT22;34804;49.214;12.276;2023-03-01T15:33:37;11.10;46.60
48994;DHT22;34804;49.214;12.276;2023-03-01T15:36:31;11.10;46.10
48994;DHT22;34804;49.214;12.276;2023-03-01T15:39:00;10.40;47.80
48994;DHT22;34804;49.214;12.276;2023-03-01T15:41:46;10.10;48.80
48994;DHT22;34804;49.214;12.276;2023-03-01T15:44:18;10.00;49.10
48994;DHT22;34804;49.214;12.276;2023-03-01T15:46:55;10.10;49.10
48994;DHT22;34804;49.214;12.276;2023-03-01T15:49:41;10.70;48.30
48994;DHT22;34804;49.214;12.276;2023-03-01T15:52:29;10.40;47.90
48994;DHT22;34804;49.214;12.276;2023-03-01T15:55:00;10.20;49.10
48994;DHT22;34804;49.214;12.276;2023-03-01T15:57:28;10.00;48.90
48994;DHT22;34804;49.214;12.276;2023-03-01T15:59:55;9.60;49.90
48994;DHT22;34804;49.214;12.276;2023-03-01T16:02:23;9.60;49.80
48994;DHT22;34804;49.214;12.276;2023-03-01T16:04:50;9.30;50.80
48994;DHT22;34804;49.214;12.276;2023-03-01T16:07:17;8.60;52.00
48994;DHT22;34804;49.214;12.276;2023-03-01T16:09:44;8.80;52.10
48994;DHT22;34804;49.214;12.276;2023-03-01T16:12:15;8.50;52.70
48994;DHT22;34804;49.214;12.276;2023-03-01T16:14:42;8.00;54.40
48994;DHT22;34804;49.214;12.276;2023-03-01T16:17:09;7.80;55.40
48994;DHT22;34804;49.214;12.276;2023-03-01T16:19:39;7.50;56.00
48994;DHT22;34804;49.214;12.276;2023-03-01T16:22:09;7.20;57.10
48994;DHT22;34804;49.214;12.276;2023-03-01T16:24:36;7.10;57.30
48994;DHT22;34804;49.214;12.276;2023-03-01T16:27:04;7.30;57.00
48994;DHT22;34804;49.214;12.276;2023-03-01T16:29:31;7.50;56.60
48994;DHT22;34804;49.214;12.276;2023-03-01T16:32:00;7.30;56.70
48994;DHT22;34804;49.214;12.276;2023-03-01T16:34:28;7.20;56.80
48994;DHT22;34804;49.214;12.276;2023-03-01T16:36:55;7.00;57.60
48994;DHT22;34804;49.214;12.276;2023-03-01T16:39:21;6.60;58.30
48994;DHT22;34804;49.214;12.276;2023-03-01T16:41:48;6.40;59.20
48994;DHT22;34804;49.214;12.276;2023-03-01T16:44:15;6.20;59.90
48994;DHT22;34804;49.214;12.276;2023-03-01T16:46:42;5.90;60.80
48994;DHT22;34804;49.214;12.276;2023-03-01T16:49:10;5.80;61.40
48994;DHT22;34804;49.214;12.276;2023-03-01T16:51:36;5.60;62.00
48994;DHT22;34804;49.214;12.276;2023-03-01T16:54:03;5.70;62.00
48994;DHT22;34804;49.214;12.276;2023-03-01T16:56:31;5.40;62.60
48994;DHT22;34804;49.214;12.276;2023-03-01T16:59:00;5.30;63.20
48994;DHT22;34804;49.214;12.276;2023-03-01T17:01:32;5.20;63.30
48994;DHT22;34804;49.214;12.276;2023-03-01T17:04:06;5.10;64.00
48994;DHT22;34804;49.214;12.276;2023-03-01T17:06:35;5.10;63.80